Αρχική σελίδα
METAR-TAF:

METAR-TAF

Αεροδρόμια :

Αεροδρόμιο του Ζάγκρεμπ

Ζάγκρεμπ, Κροατία

γεωγραφικό πλάτος: 45-44N, γεωγραφικό μήκος: 016-04E, υψόμετρο: 106 μ

Παρών καιρός

Η αναφορά έγινε 22 λεπτά πριν, στις 21:00 UTC
Άνεμος 2 kt από
Θερμοκρασία 21°C
Υγρασία 78%
Πίεση 1015 hPa
Ορατότητα 10 χλμ και άνω
Δεν υπάρχουν νέφη με βάση κάτω από τα 1500 μ. και δεν υπάρχουν νέφη σωρειτομελανίτες.

METAR: LDZA 172100Z 32002KT CAVOK 21/17 Q1015 NOSIG

Χρόνος: 23:22 (21:22 UTC)

Πρόγνωση Καιρού

Η αναφορά έγινε 3 ώρες και 57 λεπτά πριν, στις 17:25 UTC
Η πρόγνωση ισχύει από τις 17 στις 18 UTC έως τις 18 στις 18 UTC
Άνεμος 2 kt από μεταβλητές κατευθύνσεις
Ορατότητα 10 χλμ και άνω
Δεν υπάρχουν νέφη με βάση κάτω από τα 1500 μ. και δεν υπάρχουν νέφη σωρειτομελανίτες.

TAF: LDZA 171725Z 1718/1818 VRB02KT CAVOK TX31/1813Z TN16/1803Z

Μετεωρολογικές αναφορές και προγνώσεις για περισσότερα από 4000 αεροδρόμια (δελτία METAR και TAF).

Οι διαθέσιμοι σταθμοί απεικονίζονται στο χάρτη με κίτρινες και κόκκινες κουκκίδες.

Μετακινήστε το ποντίκι πάνω από τις κουκκίδες για να δείτε το όνομα του σταθμού.

Στη συνέχεια, κάντε κλικ για να δείτε τις μετεωρολογικές αναφορές και τις προγνώσεις καιρού.

Για να αλλάξετε το χάρτη: κάντε κλικ στα πράσινα κουμπιά με τον μαύρο σταυρό για να ζουμάρετε, στο πράσινο κουμπί με την παύλα για να αφαιρέσετε το ζουμ ή στα πράσινα βέλη για να αντιπαραβάλλετε χάρτες.


METAR-TAF: